Strona główna
METAR-TAF:

METAR-TAF

Lotnisko :

Mont-de-Marsan, Francja

Szerokość geograficzna: 43-55N, Długość geograficzna: 000-30W, wysokość: 62 m

Aktualna obserwacja pogody

Raport powstał 19 minut temu, godzina 19:00 UTC
Wiatr 2 kt z kierunków zmiennych
Temperatura 30°C
Wilgotność 46%
Ciśnienie 1008 hPa
Widzialność 10 km lub więcej
Brak chmur poniżej 1500 m i brak chmur cumulonimbus

METAR: LFBM 251900Z AUTO VRB02KT CAVOK 30/17 Q1008 NOSIG

czas: 21:19 (19:19 UTC)

Prognoza

Raport powstał 5 godziny i 19 minut temu, godzina 14:00 UTC
Prognoza ważna od 25 godzina 15 UTC do 26 godzina 15 UTC
Wiatr 5 kt od wschodnio-południowy wschód
Widzialność 10 km lub więcej
Brak chmur poniżej 1500 m i brak chmur cumulonimbus

TAF: LFBM 251400Z 2515/2615 11005KT CAVOK

Obserwacja i prognoza pogody dla ponad 4000 lotnisk (raport METAR i TAF).

Dostępne stacje oznaczono żółtymi i czerwonymi punktami na mapie.

Najedź kursorem aby zobaczyć nazwę stacji.

Kliknij aby zobaczyć obserwacje i prognozy pogody.

Aby zmienić mapę: kliknij na zielony przycisk z czarnym krzyżykiem, aby powiększyć; na zielony przycisk z myślnikiem, aby pomniejszyć; na zielone strzałki, aby przejść do map sąsiednich.


METAR-TAF: